createdAt,value
2023-05-08T00:01:35.151Z,27.50
2023-05-08T00:03:42.025Z,27.92
2023-05-08T00:05:49.053Z,30.55
2023-05-08T00:08:02.188Z,30.30
2023-05-08T00:10:10.934Z,25.88
2023-05-08T00:12:17.971Z,30.25
2023-05-08T00:14:27.050Z,26.65
2023-05-08T00:16:34.512Z,28.88
2023-05-08T00:18:42.228Z,29.35
2023-05-08T00:20:49.004Z,29.15
2023-05-08T00:22:55.991Z,29.52
2023-05-08T00:25:02.800Z,27.30
2023-05-08T00:27:10.238Z,29.67
2023-05-08T00:29:17.070Z,30.02
2023-05-08T00:31:26.757Z,31.80
2023-05-08T00:33:33.767Z,29.25
2023-05-08T00:35:42.200Z,27.35
2023-05-08T00:37:49.121Z,31.73
2023-05-08T00:39:56.452Z,35.50
2023-05-08T00:42:03.273Z,28.23
2023-05-08T00:44:10.316Z,29.40
2023-05-08T00:46:17.880Z,30.67
2023-05-08T00:48:27.899Z,27.08
2023-05-08T00:50:35.844Z,30.45
2023-05-08T00:52:43.178Z,26.52
2023-05-08T00:54:50.662Z,31.25
2023-05-08T00:56:57.742Z,38.78
2023-05-08T00:59:06.256Z,32.28
2023-05-08T01:01:15.393Z,32.63
2023-05-08T01:03:23.844Z,33.42
2023-05-08T01:05:32.827Z,33.00
2023-05-08T01:07:40.006Z,36.38
2023-05-08T01:09:46.777Z,38.95
2023-05-08T01:11:59.450Z,32.45
2023-05-08T01:14:16.097Z,32.58
2023-05-08T01:16:32.328Z,33.85
2023-05-08T01:18:43.561Z,38.38
2023-05-08T01:20:59.189Z,27.45
2023-05-08T01:23:35.025Z,31.25
2023-05-08T01:26:08.744Z,31.20
2023-05-08T01:28:57.145Z,25.20
2023-05-08T01:31:11.344Z,26.48
2023-05-08T01:35:54.232Z,18.88
2023-05-08T01:38:09.528Z,20.98
2023-05-08T01:40:24.817Z,17.98
2023-05-08T01:42:42.390Z,20.70
2023-05-08T01:44:54.345Z,23.60
2023-05-08T01:47:02.215Z,20.98
2023-05-08T01:49:13.920Z,19.13
2023-05-08T01:51:26.900Z,15.20
2023-05-08T01:53:38.428Z,16.58
2023-05-08T01:55:53.983Z,12.10
2023-05-08T01:58:06.822Z,12.80
2023-05-08T02:00:14.842Z,14.17
2023-05-08T02:02:22.835Z,12.02
2023-05-08T02:04:32.919Z,10.50
2023-05-08T02:06:42.004Z,9.88
2023-05-08T02:08:50.390Z,12.60
2023-05-08T02:10:59.170Z,11.73
2023-05-08T02:13:07.543Z,7.18
2023-05-08T02:15:17.670Z,17.75
2023-05-08T02:17:25.491Z,19.92
2023-05-08T02:19:34.791Z,14.38
2023-05-08T02:21:43.992Z,8.43
2023-05-08T02:23:51.587Z,8.27
2023-05-08T02:26:00.603Z,11.23
2023-05-08T02:28:10.350Z,14.77
2023-05-08T02:30:20.612Z,14.35
2023-05-08T02:32:34.049Z,11.68
2023-05-08T02:35:02.034Z,24.30
2023-05-08T02:37:17.914Z,31.63
2023-05-08T02:39:28.857Z,15.32
2023-05-08T02:41:38.286Z,14.60
2023-05-08T02:43:45.876Z,48.58
2023-05-08T02:46:01.949Z,8.90
2023-05-08T02:48:15.826Z,9.32
2023-05-08T02:50:29.861Z,10.77
2023-05-08T02:52:41.482Z,7.93
2023-05-08T02:57:06.541Z,10.75
2023-05-08T02:59:20.033Z,9.52
2023-05-08T03:01:31.821Z,10.57
2023-05-08T03:03:43.970Z,6.78
2023-05-08T03:05:56.977Z,5.95
2023-05-08T03:08:08.011Z,7.82
2023-05-08T03:10:17.659Z,7.60
2023-05-08T03:12:29.836Z,11.52
2023-05-08T03:14:42.604Z,9.85
2023-05-08T03:16:50.957Z,8.57
2023-05-08T03:19:03.053Z,8.07
2023-05-08T03:23:22.742Z,9.27
2023-05-08T03:25:31.572Z,10.73
2023-05-08T03:27:40.287Z,11.65
2023-05-08T03:29:48.690Z,9.02
2023-05-08T03:31:56.851Z,6.60
2023-05-08T03:34:05.410Z,6.63
2023-05-08T03:36:15.356Z,7.35
2023-05-08T03:38:23.304Z,7.07
2023-05-08T03:40:32.126Z,5.68
2023-05-08T03:42:40.686Z,6.22
2023-05-08T03:44:48.279Z,6.15
2023-05-08T03:46:59.460Z,6.30
2023-05-08T03:51:16.543Z,5.60
2023-05-08T03:53:23.816Z,12.60
2023-05-08T03:55:31.257Z,8.63
2023-05-08T03:57:48.904Z,5.97
2023-05-08T04:00:04.975Z,6.95
2023-05-08T04:02:28.655Z,6.68
2023-05-08T04:04:42.892Z,7.43
2023-05-08T04:07:02.700Z,6.38
2023-05-08T04:09:23.059Z,8.75
2023-05-08T04:11:35.158Z,9.68
2023-05-08T04:13:52.019Z,7.53
2023-05-08T04:16:08.527Z,12.77
2023-05-08T04:18:20.361Z,7.90
2023-05-08T04:20:30.674Z,6.40
2023-05-08T04:22:43.681Z,9.20
2023-05-08T04:24:53.733Z,9.68
2023-05-08T04:27:01.735Z,9.85
2023-05-08T04:29:10.656Z,6.97
2023-05-08T04:31:19.471Z,12.48
2023-05-08T04:33:26.963Z,7.15
2023-05-08T04:35:34.200Z,7.05
2023-05-08T04:37:44.963Z,8.07
2023-05-08T04:39:54.968Z,6.38
2023-05-08T04:42:05.724Z,6.72
2023-05-08T04:44:15.214Z,8.93
2023-05-08T04:46:22.534Z,10.27
2023-05-08T04:48:29.527Z,10.68
2023-05-08T04:50:36.610Z,8.82
2023-05-08T04:52:45.535Z,10.32
2023-05-08T04:54:52.759Z,12.20
2023-05-08T04:56:59.518Z,11.80
2023-05-08T04:59:07.741Z,10.77
2023-05-08T05:01:14.924Z,14.30
2023-05-08T05:03:22.580Z,16.35
2023-05-08T05:05:29.851Z,18.35
2023-05-08T05:07:37.419Z,14.68
2023-05-08T05:09:47.379Z,9.88
2023-05-08T05:11:55.948Z,13.73
2023-05-08T05:14:04.409Z,12.45
2023-05-08T05:16:12.007Z,18.42
2023-05-08T05:18:19.353Z,13.00
2023-05-08T05:20:26.697Z,14.38
2023-05-08T05:22:35.125Z,11.02
2023-05-08T05:24:42.562Z,12.73
2023-05-08T05:26:51.385Z,11.48
2023-05-08T05:28:58.833Z,11.65
2023-05-08T05:31:06.141Z,11.60
2023-05-08T05:33:13.414Z,12.63
2023-05-08T05:35:20.470Z,12.23
2023-05-08T05:37:27.956Z,10.68
2023-05-08T05:39:34.984Z,10.57
2023-05-08T05:41:45.238Z,12.65
2023-05-08T05:43:54.272Z,11.73
2023-05-08T05:46:08.610Z,12.93
2023-05-08T05:48:16.036Z,11.77
2023-05-08T05:50:23.590Z,9.68
2023-05-08T05:52:31.075Z,9.48
2023-05-08T05:54:38.472Z,10.55
2023-05-08T05:56:45.814Z,10.88
2023-05-08T05:58:54.874Z,11.50
2023-05-08T06:01:03.754Z,11.98
2023-05-08T06:03:11.839Z,11.70
2023-05-08T06:05:20.171Z,11.77
2023-05-08T06:07:27.314Z,13.05
2023-05-08T06:09:34.161Z,11.52
2023-05-08T06:11:41.393Z,12.45
2023-05-08T06:13:50.508Z,13.57
2023-05-08T06:16:00.538Z,12.50
2023-05-08T06:18:07.853Z,11.85
2023-05-08T06:20:15.393Z,10.63
2023-05-08T06:22:24.173Z,13.50
2023-05-08T06:24:31.655Z,11.68
2023-05-08T06:26:38.528Z,9.70
2023-05-08T06:28:45.915Z,9.80
2023-05-08T06:30:52.985Z,11.45
2023-05-08T06:33:02.181Z,10.65
2023-05-08T06:35:10.324Z,10.15
2023-05-08T06:37:17.922Z,10.32
2023-05-08T06:39:24.857Z,10.43
2023-05-08T06:41:31.921Z,10.18
2023-05-08T06:43:38.589Z,10.32
2023-05-08T06:45:47.357Z,13.13
2023-05-08T06:47:54.148Z,10.80
2023-05-08T06:50:04.590Z,9.13
2023-05-08T06:52:11.464Z,9.15
2023-05-08T06:54:18.798Z,10.85
2023-05-08T06:56:25.572Z,10.68
2023-05-08T06:58:33.268Z,11.38
2023-05-08T07:00:40.304Z,10.63
2023-05-08T07:02:47.738Z,10.65
2023-05-08T07:04:54.682Z,10.68
2023-05-08T07:07:03.695Z,9.57
2023-05-08T07:09:10.968Z,12.65
2023-05-08T07:11:18.161Z,15.60
2023-05-08T07:13:25.361Z,11.98
2023-05-08T07:15:34.641Z,15.65
2023-05-08T07:17:42.721Z,12.90
2023-05-08T07:19:54.201Z,13.98
2023-05-08T07:22:03.132Z,16.13
2023-05-08T07:24:10.761Z,17.05
2023-05-08T07:26:17.693Z,16.27
2023-05-08T07:28:25.074Z,12.75
2023-05-08T07:30:31.963Z,12.60
2023-05-08T07:32:40.204Z,11.77
2023-05-08T07:34:47.660Z,11.20
2023-05-08T07:36:55.081Z,10.90
2023-05-08T07:39:03.800Z,11.27
2023-05-08T07:41:10.794Z,11.32
2023-05-08T07:43:18.005Z,10.07
2023-05-08T07:45:25.135Z,10.25
2023-05-08T07:47:32.212Z,10.73
2023-05-08T07:49:39.347Z,13.77
2023-05-08T07:51:46.626Z,10.23
2023-05-08T07:53:53.655Z,11.38
2023-05-08T07:56:02.634Z,11.70
2023-05-08T07:58:09.554Z,9.73
2023-05-08T08:00:18.118Z,11.60
2023-05-08T08:02:25.174Z,12.35
2023-05-08T08:04:32.024Z,10.52
2023-05-08T08:06:39.047Z,11.27
2023-05-08T08:08:46.278Z,10.98
2023-05-08T08:10:53.927Z,12.32
2023-05-08T08:13:03.477Z,12.05
2023-05-08T08:15:11.452Z,10.25
2023-05-08T08:17:18.625Z,11.55
2023-05-08T08:19:25.464Z,10.13
2023-05-08T08:21:32.648Z,10.10
2023-05-08T08:23:39.829Z,11.10
2023-05-08T08:25:47.269Z,10.35
2023-05-08T08:27:54.422Z,11.48
2023-05-08T08:30:16.241Z,10.05
2023-05-08T08:32:24.733Z,12.77
2023-05-08T08:34:31.561Z,13.82
2023-05-08T08:36:38.743Z,13.25
2023-05-08T08:38:45.928Z,10.32
2023-05-08T08:40:54.131Z,12.77
2023-05-08T08:43:01.248Z,10.07
2023-05-08T08:45:11.618Z,10.65
2023-05-08T08:47:22.269Z,11.65
2023-05-08T08:49:34.018Z,11.43
2023-05-08T08:51:49.032Z,13.80
2023-05-08T08:54:05.532Z,11.57
2023-05-08T08:56:13.481Z,11.70
2023-05-08T08:58:29.775Z,11.00
2023-05-08T09:00:41.401Z,10.73
2023-05-08T09:02:49.450Z,11.35
2023-05-08T09:04:56.666Z,11.20
2023-05-08T09:07:06.314Z,10.95
2023-05-08T09:09:15.024Z,10.32
2023-05-08T09:11:22.540Z,13.95
2023-05-08T09:13:29.704Z,10.65
2023-05-08T09:15:38.751Z,10.85
2023-05-08T09:17:45.565Z,10.35
2023-05-08T09:19:54.292Z,10.20
2023-05-08T09:22:03.367Z,12.00
2023-05-08T09:24:11.015Z,13.80
2023-05-08T09:26:33.371Z,10.98
2023-05-08T09:28:40.424Z,11.23
2023-05-08T09:30:55.405Z,10.38
2023-05-08T09:33:06.084Z,10.90
2023-05-08T09:35:14.475Z,11.50
2023-05-08T09:37:21.802Z,13.45
2023-05-08T09:39:29.403Z,10.05
2023-05-08T09:41:36.672Z,12.35
2023-05-08T09:43:43.805Z,10.95
2023-05-08T09:45:52.718Z,9.63
2023-05-08T09:48:00.008Z,11.35
2023-05-08T09:50:08.528Z,10.82
2023-05-08T09:52:19.799Z,12.45
2023-05-08T09:54:26.981Z,12.52
2023-05-08T09:56:38.114Z,10.93
2023-05-08T09:58:46.310Z,11.75
2023-05-08T10:00:55.749Z,11.63
2023-05-08T10:03:04.426Z,12.77
2023-05-08T10:05:28.137Z,11.40
2023-05-08T10:07:36.746Z,11.93
2023-05-08T10:09:50.780Z,13.60
2023-05-08T10:11:58.383Z,9.63
2023-05-08T10:14:05.666Z,10.48
2023-05-08T10:16:17.932Z,13.63
2023-05-08T10:18:30.041Z,12.57
2023-05-08T10:20:37.966Z,10.52
2023-05-08T10:22:46.833Z,11.15
2023-05-08T10:24:58.779Z,11.30
2023-05-08T10:27:13.543Z,12.50
2023-05-08T10:29:25.686Z,11.02
2023-05-08T10:31:37.959Z,9.52
2023-05-08T10:33:47.881Z,11.23
2023-05-08T10:35:55.322Z,10.15
2023-05-08T10:38:03.544Z,12.68
2023-05-08T10:40:12.103Z,10.50
2023-05-08T10:42:19.630Z,12.88
2023-05-08T10:44:29.116Z,12.40
2023-05-08T10:46:45.396Z,14.25
2023-05-08T10:49:06.980Z,13.52
2023-05-08T10:51:18.418Z,13.68
2023-05-08T10:53:34.614Z,13.35
2023-05-08T10:55:42.349Z,11.25
2023-05-08T10:58:12.219Z,11.30
2023-05-08T11:00:20.215Z,10.80
2023-05-08T11:02:37.872Z,11.68
2023-05-08T11:04:46.076Z,13.65
2023-05-08T11:06:55.303Z,11.27
2023-05-08T11:09:02.453Z,17.25
2023-05-08T11:11:14.448Z,10.57
2023-05-08T11:13:22.740Z,14.05
2023-05-08T11:15:40.741Z,15.25
2023-05-08T11:17:57.675Z,13.18
2023-05-08T11:20:05.499Z,17.35
2023-05-08T11:22:27.033Z,18.92
2023-05-08T11:24:40.501Z,38.78
2023-05-08T11:27:05.812Z,31.58
2023-05-08T11:29:20.593Z,28.80
2023-05-08T11:31:37.111Z,24.00
2023-05-08T11:33:45.623Z,21.42
2023-05-08T11:35:58.079Z,20.45
2023-05-08T11:38:26.484Z,15.35
2023-05-08T11:40:51.916Z,15.52
2023-05-08T11:43:01.555Z,14.95
2023-05-08T11:45:10.702Z,15.93
2023-05-08T11:47:21.755Z,15.38
2023-05-08T11:49:31.245Z,18.10
2023-05-08T11:51:39.448Z,19.95
2023-05-08T11:53:50.914Z,17.63
2023-05-08T11:55:58.223Z,16.17
2023-05-08T11:58:05.243Z,21.75
2023-05-08T12:00:14.038Z,20.10
2023-05-08T12:02:21.127Z,17.70
2023-05-08T12:04:30.144Z,20.33
2023-05-08T12:06:38.884Z,18.10
2023-05-08T12:08:46.064Z,18.95
2023-05-08T12:10:57.548Z,21.73
2023-05-08T12:15:12.120Z,22.60
2023-05-08T12:17:21.618Z,23.88
2023-05-08T12:19:30.381Z,25.35
2023-05-08T12:21:37.759Z,26.38
2023-05-08T12:23:44.628Z,26.40
2023-05-08T12:25:55.348Z,28.80
2023-05-08T12:28:02.787Z,25.25
2023-05-08T12:30:11.776Z,27.67
2023-05-08T12:32:18.888Z,26.42
2023-05-08T12:34:26.276Z,29.35
2023-05-08T12:36:38.145Z,21.98
2023-05-08T12:38:45.358Z,24.25
2023-05-08T12:40:53.963Z,22.35
2023-05-08T12:43:03.774Z,20.45
2023-05-08T12:45:11.819Z,24.35
2023-05-08T12:47:18.937Z,25.02
2023-05-08T12:49:30.937Z,21.55
2023-05-08T12:51:41.086Z,22.88
2023-05-08T12:53:50.371Z,21.15
2023-05-08T12:55:58.314Z,24.88
2023-05-08T12:58:06.530Z,23.17
2023-05-08T13:00:15.091Z,23.10
2023-05-08T13:02:27.616Z,21.80
2023-05-08T13:04:40.867Z,23.30
2023-05-08T13:06:58.449Z,22.33
2023-05-08T13:09:05.679Z,18.95
2023-05-08T13:11:12.553Z,24.02
2023-05-08T13:13:20.839Z,23.55
2023-05-08T13:15:27.730Z,23.58
2023-05-08T13:17:35.033Z,20.45
2023-05-08T13:19:41.893Z,22.88
2023-05-08T13:21:50.760Z,22.67
2023-05-08T13:23:57.691Z,25.80
2023-05-08T13:26:05.172Z,23.42
2023-05-08T13:28:13.537Z,23.55
2023-05-08T13:30:21.738Z,23.88
2023-05-08T13:32:28.743Z,22.63
2023-05-08T13:34:37.778Z,23.13
2023-05-08T13:36:50.195Z,24.42
2023-05-08T13:38:58.501Z,26.80
2023-05-08T13:41:05.283Z,24.00
2023-05-08T13:43:12.259Z,21.60
2023-05-08T13:45:19.586Z,26.60
2023-05-08T13:47:26.625Z,23.70
2023-05-08T13:49:33.491Z,23.98
2023-05-08T13:51:40.319Z,26.13
2023-05-08T13:53:49.105Z,28.58
2023-05-08T13:55:55.904Z,25.30
2023-05-08T13:58:02.981Z,27.20
2023-05-08T14:00:11.772Z,24.83
2023-05-08T14:02:18.847Z,22.92
2023-05-08T14:04:25.920Z,22.63
2023-05-08T14:06:33.873Z,24.92
2023-05-08T14:08:46.636Z,23.23
2023-05-08T14:10:57.524Z,21.95
2023-05-08T14:13:04.604Z,24.00
2023-05-08T14:15:12.961Z,22.23
2023-05-08T14:17:22.999Z,21.05
2023-05-08T14:19:30.056Z,19.35
2023-05-08T14:21:37.750Z,21.13
2023-05-08T14:23:45.548Z,19.23
2023-05-08T14:25:52.374Z,15.75
2023-05-08T14:28:01.291Z,15.70
2023-05-08T14:30:09.299Z,13.60
2023-05-08T14:32:16.137Z,14.38
2023-05-08T14:34:22.990Z,12.75
2023-05-08T14:36:30.130Z,12.30
2023-05-08T14:38:36.944Z,12.98
2023-05-08T14:40:44.219Z,11.18
2023-05-08T14:42:51.156Z,12.32
2023-05-08T14:45:00.141Z,14.52
2023-05-08T14:47:07.562Z,10.60
2023-05-08T14:51:41.596Z,15.00
2023-05-08T14:53:49.078Z,13.20
2023-05-08T14:55:56.120Z,10.73
2023-05-08T14:58:03.544Z,12.50
2023-05-08T15:00:13.964Z,11.75
2023-05-08T15:02:21.650Z,11.80
2023-05-08T15:04:28.775Z,12.23
2023-05-08T15:06:37.171Z,11.70
2023-05-08T15:08:44.015Z,10.20
2023-05-08T15:10:51.087Z,13.07
2023-05-08T15:12:58.070Z,11.70
2023-05-08T15:15:05.293Z,12.55
2023-05-08T15:17:13.878Z,13.27
2023-05-08T15:19:21.044Z,11.52
2023-05-08T15:21:35.038Z,10.85
2023-05-08T15:23:42.523Z,12.30
2023-05-08T15:25:50.661Z,10.48
2023-05-08T15:27:58.973Z,12.13
2023-05-08T15:30:07.908Z,9.60
2023-05-08T15:32:21.042Z,13.82
2023-05-08T15:34:32.430Z,11.93
2023-05-08T15:36:42.313Z,12.23
2023-05-08T15:38:51.841Z,12.15
2023-05-08T15:43:21.976Z,14.63
2023-05-08T15:45:29.150Z,10.75
2023-05-08T15:47:37.991Z,11.73
2023-05-08T15:49:44.851Z,15.07
2023-05-08T15:51:51.724Z,11.55
2023-05-08T15:53:58.649Z,13.63
2023-05-08T15:56:13.205Z,10.63
2023-05-08T15:58:21.463Z,10.15
2023-05-08T16:00:33.452Z,12.60
2023-05-08T16:05:15.480Z,11.02
2023-05-08T16:07:22.484Z,10.68
2023-05-08T16:09:29.674Z,10.75
2023-05-08T16:11:36.655Z,13.18
2023-05-08T16:13:43.838Z,14.20
2023-05-08T16:15:50.809Z,17.17
2023-05-08T16:17:59.680Z,11.55
2023-05-08T16:20:06.715Z,13.57
2023-05-08T16:22:13.525Z,13.05
2023-05-08T16:24:23.994Z,13.95
2023-05-08T16:26:31.534Z,12.38
2023-05-08T16:28:38.753Z,12.85
2023-05-08T16:30:45.744Z,13.55
2023-05-08T16:32:53.053Z,10.88
2023-05-08T16:35:01.788Z,15.27
2023-05-08T16:37:08.936Z,13.43
2023-05-08T16:39:15.649Z,13.48
2023-05-08T16:41:22.781Z,14.05
2023-05-08T16:43:29.603Z,13.38
2023-05-08T16:45:36.750Z,14.70
2023-05-08T16:47:48.455Z,12.63
2023-05-08T16:49:56.393Z,14.02
2023-05-08T16:52:05.446Z,11.43
2023-05-08T16:54:12.576Z,11.63
2023-05-08T16:56:19.603Z,13.88
2023-05-08T16:58:29.660Z,14.00
2023-05-08T17:00:36.576Z,13.65
2023-05-08T17:02:43.874Z,11.57
2023-05-08T17:04:51.202Z,14.40
2023-05-08T17:06:58.427Z,15.85
2023-05-08T17:09:07.046Z,17.50
2023-05-08T17:11:13.975Z,15.50
2023-05-08T17:13:20.767Z,19.17
2023-05-08T17:15:27.773Z,16.88
2023-05-08T17:17:34.804Z,15.65
2023-05-08T17:19:44.137Z,18.25
2023-05-08T17:21:50.958Z,17.85
2023-05-08T17:23:58.082Z,18.70
2023-05-08T17:26:06.544Z,22.88
2023-05-08T17:28:13.725Z,18.25
2023-05-08T17:30:33.004Z,18.98
2023-05-08T17:39:49.230Z,27.50
2023-05-08T17:41:58.101Z,20.83
2023-05-08T17:44:07.161Z,21.88
2023-05-08T17:53:26.660Z,26.05
2023-05-08T17:55:35.581Z,19.80
2023-05-08T17:57:43.996Z,27.17
2023-05-08T17:59:51.779Z,24.42
2023-05-08T18:02:02.047Z,23.70
2023-05-08T18:04:09.371Z,25.73
2023-05-08T18:06:18.894Z,26.98
2023-05-08T18:08:26.033Z,18.25
2023-05-08T18:10:33.315Z,15.45
2023-05-08T18:12:40.800Z,20.90
2023-05-08T18:14:49.677Z,19.02
2023-05-08T18:16:56.856Z,21.58
2023-05-08T18:19:03.629Z,18.90
2023-05-08T18:21:10.913Z,16.67
2023-05-08T18:23:17.704Z,16.75
2023-05-08T18:25:24.917Z,18.77
2023-05-08T18:27:35.337Z,18.17
2023-05-08T18:29:42.610Z,18.85
2023-05-08T18:31:51.884Z,22.25
2023-05-08T18:34:00.505Z,19.58
2023-05-08T18:36:07.891Z,16.48
2023-05-08T18:38:20.203Z,21.40
2023-05-08T18:40:27.068Z,21.02
2023-05-08T18:42:34.144Z,22.02
2023-05-08T18:44:44.448Z,14.30
2023-05-08T18:46:53.422Z,16.30
2023-05-08T18:49:00.351Z,15.07
2023-05-08T18:51:09.274Z,16.10
2023-05-08T18:53:19.674Z,17.60
2023-05-08T18:55:28.445Z,18.87
2023-05-08T18:57:39.576Z,15.35
2023-05-08T18:59:46.648Z,13.93
2023-05-08T19:02:13.902Z,16.50
2023-05-08T19:04:27.384Z,13.55
2023-05-08T19:06:34.565Z,13.68
2023-05-08T19:08:45.594Z,17.50
2023-05-08T19:10:52.355Z,16.65
2023-05-08T19:13:02.997Z,15.57
2023-05-08T19:15:14.548Z,14.25
2023-05-08T19:17:23.732Z,17.10
2023-05-08T19:19:30.503Z,18.42
2023-05-08T19:21:37.736Z,19.73
2023-05-08T19:23:44.615Z,16.50
2023-05-08T19:25:51.691Z,16.77
2023-05-08T19:27:59.645Z,16.80
2023-05-08T19:30:16.931Z,16.20
2023-05-08T19:32:29.875Z,18.90
2023-05-08T19:34:39.425Z,22.83
2023-05-08T19:36:53.864Z,20.83
2023-05-08T19:39:04.732Z,18.95
2023-05-08T19:41:11.932Z,20.67
2023-05-08T19:45:39.081Z,19.05
2023-05-08T19:47:51.317Z,19.75
2023-05-08T19:49:58.507Z,15.00
2023-05-08T19:52:05.482Z,16.63
2023-05-08T19:54:12.415Z,17.85
2023-05-08T19:56:19.335Z,18.10
2023-05-08T19:58:26.464Z,19.67
2023-05-08T20:00:33.748Z,19.42
2023-05-08T20:02:40.660Z,20.10
2023-05-08T20:05:18.207Z,20.20
2023-05-08T20:07:17.160Z,16.88
2023-05-08T20:09:24.334Z,18.80
2023-05-08T20:11:31.215Z,18.83
2023-05-08T20:13:38.191Z,17.13
2023-05-08T20:15:45.596Z,18.88
2023-05-08T20:17:52.867Z,18.83
2023-05-08T20:20:01.919Z,22.17
2023-05-08T20:22:09.014Z,16.63
2023-05-08T20:24:16.252Z,18.05
2023-05-08T20:26:32.352Z,20.42
2023-05-08T20:28:39.785Z,16.05
2023-05-08T20:30:47.213Z,19.23
2023-05-08T20:32:54.136Z,16.45
2023-05-08T20:35:05.671Z,19.73
2023-05-08T20:39:32.487Z,18.95
2023-05-08T20:41:39.407Z,18.15
2023-05-08T20:43:46.589Z,19.40
2023-05-08T20:45:59.707Z,22.02
2023-05-08T20:48:07.527Z,23.25
2023-05-08T20:50:17.083Z,18.67
2023-05-08T20:52:24.376Z,16.65
2023-05-08T20:54:32.939Z,17.95
2023-05-08T20:56:44.627Z,19.23
2023-05-08T20:58:51.475Z,17.10
2023-05-08T21:00:58.361Z,18.63
2023-05-08T21:03:05.431Z,19.73
2023-05-08T21:09:55.873Z,17.10
2023-05-08T21:12:03.337Z,17.77
2023-05-08T21:14:10.380Z,19.48
2023-05-08T21:16:17.192Z,19.98
2023-05-08T21:18:29.935Z,19.40
2023-05-08T21:20:38.579Z,24.55
2023-05-08T21:22:47.105Z,17.83
2023-05-08T21:24:54.241Z,17.50
2023-05-08T21:27:02.202Z,18.02
2023-05-08T21:29:11.687Z,17.38
2023-05-08T21:31:18.831Z,17.42
2023-05-08T21:33:25.814Z,16.63
2023-05-08T21:35:33.016Z,21.30
2023-05-08T21:37:41.782Z,20.55
2023-05-08T21:39:48.863Z,18.83
2023-05-08T21:41:55.844Z,22.70
2023-05-08T21:44:02.823Z,20.50
2023-05-08T21:46:10.843Z,19.85
2023-05-08T21:48:18.081Z,21.30
2023-05-08T21:50:24.977Z,23.17
2023-05-08T21:52:32.267Z,20.50
2023-05-08T21:54:40.878Z,20.80
2023-05-08T21:56:47.986Z,20.65
2023-05-08T21:58:54.843Z,20.98
2023-05-08T22:01:01.892Z,18.98
2023-05-08T22:03:08.933Z,24.17
2023-05-08T22:05:16.327Z,20.40
2023-05-08T22:07:23.249Z,19.65
2023-05-08T22:09:30.124Z,19.83
2023-05-08T22:11:38.751Z,18.80
2023-05-08T22:13:45.815Z,26.42
2023-05-08T22:15:52.695Z,19.33
2023-05-08T22:17:59.946Z,17.83
2023-05-08T22:20:07.262Z,18.48
2023-05-08T22:22:14.441Z,21.48
2023-05-08T22:24:21.845Z,19.35
2023-05-08T22:26:29.732Z,19.65
2023-05-08T22:28:38.851Z,20.13
2023-05-08T22:30:47.418Z,20.60
2023-05-08T22:32:58.381Z,19.20
2023-05-08T22:35:05.621Z,20.60
2023-05-08T22:37:12.540Z,21.95
2023-05-08T22:39:33.958Z,20.38
2023-05-08T22:41:41.459Z,21.53
2023-05-08T22:43:50.417Z,20.42
2023-05-08T22:45:57.406Z,19.38
2023-05-08T22:48:04.761Z,18.52
2023-05-08T22:50:29.175Z,19.83
2023-05-08T22:54:56.235Z,19.25
2023-05-08T22:57:03.899Z,21.63
2023-05-08T22:59:12.487Z,21.02
2023-05-08T23:01:22.545Z,20.80
2023-05-08T23:03:32.840Z,20.98
2023-05-08T23:05:40.431Z,21.13
2023-05-08T23:07:47.313Z,19.83
2023-05-08T23:09:54.435Z,22.30
2023-05-08T23:14:32.306Z,18.48
2023-05-08T23:16:39.401Z,15.93
2023-05-08T23:18:46.665Z,19.67
2023-05-08T23:20:53.536Z,21.63
2023-05-08T23:23:06.766Z,22.08
2023-05-08T23:25:14.782Z,18.23
2023-05-08T23:27:21.997Z,19.08
2023-05-08T23:29:31.278Z,21.30
2023-05-08T23:31:39.718Z,17.33
2023-05-08T23:33:46.980Z,19.20
2023-05-08T23:35:55.025Z,20.85
2023-05-08T23:38:01.847Z,19.50
2023-05-08T23:40:14.822Z,23.50
2023-05-08T23:42:29.827Z,22.98
2023-05-08T23:44:39.508Z,20.52
2023-05-08T23:46:47.120Z,21.02
2023-05-08T23:48:54.188Z,22.65
2023-05-08T23:51:12.293Z,22.67
2023-05-08T23:53:35.135Z,22.85
2023-05-08T23:55:44.867Z,53.03
2023-05-08T23:57:51.652Z,57.47
